Time;durP1;ratioP1;P1;durP2;ratioP2;P2;SDS_P1;SDS_P2;PMS_P1;PMS_P2;Temp;Humidity;BMP_temperature;BMP_pressure;BME280_temperature;BME280_humidity;BME280_pressure;Samples;Min_cycle;Max_cycle;Signal;HPM_P1;HPM_P2
2021/04/12 00:03:44;;;;;;;;;;;4.40;99.90;;;;;;10478224;28;20513;-67
2021/04/12 00:09:04;;;;;;;;;;;4.40;99.90;;;;;;10490119;28;19967;-67
2021/04/12 00:14:08;;;;;;;;;;;4.40;99.90;;;;;;10489997;28;19926;-67
2021/04/12 00:19:20;;;;;;;;;;;4.30;99.90;;;;;;10489235;28;20167;-67
2021/04/12 00:24:45;;;;;;;;;;;4.30;99.90;;;;;;10489600;28;19920;-67
2021/04/12 00:29:50;;;;;;;;;;;4.30;99.90;;;;;;10479967;28;20437;-67
2021/04/12 00:34:55;;;;;;;;;;;4.30;99.90;;;;;;10489532;28;20007;-68
2021/04/12 00:40:07;;;;;;;;;;;4.10;99.90;;;;;;10489366;28;19928;-67
2021/04/12 00:45:11;;;;;;;;;;;4.10;99.90;;;;;;10488523;28;20022;-67
2021/04/12 00:50:16;;;;;;;;;;;4.10;99.90;;;;;;10488850;28;20039;-67
2021/04/12 00:55:23;;;;;;;;;;;3.90;99.90;;;;;;10489314;28;19971;-67
2021/04/12 01:00:28;;;;;;;;;;;3.80;99.90;;;;;;10485795;28;20324;-67
2021/04/12 01:05:48;;;;;;;;;;;3.80;99.90;;;;;;10488642;28;20019;-67
2021/04/12 01:11:04;;;;;;;;;;;3.80;99.90;;;;;;10488471;28;20296;-67
2021/04/12 01:16:24;;;;;;;;;;;3.80;99.90;;;;;;10487829;28;20042;-67
2021/04/12 01:21:44;;;;;;;;;;;3.80;99.90;;;;;;10488027;28;19966;-67
2021/04/12 01:27:04;;;;;;;;;;;3.70;99.90;;;;;;10486070;28;19995;-67
2021/04/12 01:32:20;;;;;;;;;;;3.70;99.90;;;;;;10448255;28;20555;-67
2021/04/12 01:37:36;;;;;;;;;;;3.70;99.90;;;;;;10487648;28;20403;-67
2021/04/12 01:42:39;;;;;;;;;;;3.60;99.90;;;;;;10487471;28;19927;-68
2021/04/12 01:47:50;;;;;;;;;;;3.70;99.90;;;;;;10486229;28;20004;-67
2021/04/12 01:52:54;;;;;;;;;;;3.70;99.90;;;;;;10485972;28;20295;-67
2021/04/12 01:58:05;;;;;;;;;;;3.70;99.90;;;;;;10485550;28;20416;-67
2021/04/12 02:03:14;;;;;;;;;;;3.70;99.90;;;;;;10490692;28;19968;-67
2021/04/12 02:08:22;;;;;;;;;;;3.60;99.90;;;;;;10493364;28;19978;-67
2021/04/12 02:13:23;;;;;;;;;;;3.50;99.90;;;;;;10492519;28;19924;-67
2021/04/12 02:18:36;;;;;;;;;;;3.50;99.90;;;;;;10493470;28;19920;-67
2021/04/12 02:23:48;;;;;;;;;;;3.50;99.90;;;;;;10493823;28;20063;-67
2021/04/12 02:29:15;;;;;;;;;;;3.40;99.90;;;;;;10493124;28;19971;-67
2021/04/12 02:34:22;;;;;;;;;;;3.40;99.90;;;;;;10461507;28;19920;-67
2021/04/12 02:39:23;;;;;;;;;;;3.30;99.90;;;;;;10493524;28;20432;-67
2021/04/12 02:44:34;;;;;;;;;;;3.30;99.90;;;;;;10493126;28;19974;-67
2021/04/12 02:49:38;;;;;;;;;;;3.30;99.90;;;;;;10493843;28;19993;-67
2021/04/12 02:54:59;;;;;;;;;;;3.30;99.90;;;;;;10501574;28;20127;-67
2021/04/12 03:00:06;;;;;;;;;;;3.20;99.90;;;;;;10500833;28;19994;-67
2021/04/12 03:05:17;;;;;;;;;;;3.10;99.90;;;;;;10495829;28;20011;-67
2021/04/12 03:10:38;;;;;;;;;;;3.00;99.90;;;;;;10493982;28;20011;-67
2021/04/12 03:15:46;;;;;;;;;;;2.90;99.90;;;;;;10492265;28;19960;-67
2021/04/12 03:20:47;;;;;;;;;;;2.90;99.90;;;;;;10493366;28;20007;-67
2021/04/12 03:26:00;;;;;;;;;;;2.90;99.90;;;;;;10493659;28;19963;-67
2021/04/12 03:31:02;;;;;;;;;;;3.00;99.90;;;;;;10492804;28;20445;-67
2021/04/12 03:36:06;;;;;;;;;;;3.00;99.90;;;;;;10492907;28;19920;-67
2021/04/12 03:41:07;;;;;;;;;;;2.90;99.90;;;;;;10492687;28;19952;-67
2021/04/12 03:46:17;;;;;;;;;;;2.80;99.90;;;;;;10492261;28;19924;-68
2021/04/12 03:51:31;;;;;;;;;;;2.80;99.90;;;;;;10491735;28;19950;-67
2021/04/12 03:56:47;;;;;;;;;;;2.80;99.90;;;;;;10491123;28;20436;-67
2021/04/12 04:02:03;;;;;;;;;;;2.70;99.90;;;;;;10490975;28;19999;-67
2021/04/12 04:07:13;;;;;;;;;;;2.70;99.90;;;;;;10492330;28;19967;-67
2021/04/12 04:12:27;;;;;;;;;;;2.70;99.90;;;;;;10491976;28;20352;-67
2021/04/12 04:17:46;;;;;;;;;;;2.70;99.90;;;;;;10491658;28;20041;-67
2021/04/12 04:23:00;;;;;;;;;;;2.60;99.90;;;;;;10491834;28;20019;-67
2021/04/12 04:28:19;;;;;;;;;;;2.50;99.90;;;;;;10490903;28;20008;-67
2021/04/12 04:33:41;;;;;;;;;;;2.50;99.90;;;;;;10490685;28;20014;-67
2021/04/12 04:39:00;;;;;;;;;;;2.40;99.90;;;;;;10451242;28;19974;-67
2021/04/12 04:44:11;;;;;;;;;;;2.40;99.90;;;;;;10490374;28;20427;-67
2021/04/12 04:49:30;;;;;;;;;;;2.50;99.90;;;;;;10490192;28;20296;-67
2021/04/12 04:54:38;;;;;;;;;;;2.50;99.90;;;;;;10490427;28;19924;-67
2021/04/12 04:59:48;;;;;;;;;;;2.50;99.90;;;;;;10489273;28;20035;-67
2021/04/12 05:05:12;;;;;;;;;;;2.50;99.90;;;;;;10490563;28;20004;-67
2021/04/12 05:10:32;;;;;;;;;;;2.50;99.90;;;;;;10489816;28;20018;-67
2021/04/12 05:15:52;;;;;;;;;;;2.50;99.90;;;;;;10489422;28;19920;-67
2021/04/12 05:20:53;;;;;;;;;;;2.40;99.90;;;;;;10489045;28;20344;-67
2021/04/12 05:26:03;;;;;;;;;;;2.60;99.90;;;;;;10489301;28;20008;-67
2021/04/12 05:31:05;;;;;;;;;;;2.70;99.90;;;;;;10488297;28;20907;-67
2021/04/12 05:36:25;;;;;;;;;;;2.70;99.90;;;;;;10487574;28;20019;-67
2021/04/12 05:41:45;;;;;;;;;;;2.60;99.90;;;;;;10488372;28;20015;-67
2021/04/12 05:46:52;;;;;;;;;;;2.80;99.90;;;;;;10487787;28;20384;-67
2021/04/12 05:52:02;;;;;;;;;;;2.90;99.90;;;;;;10488059;28;20285;-67
2021/04/12 05:57:39;;;;;;;;;;;2.90;99.90;;;;;;10487531;28;19920;-67
2021/04/12 06:03:03;;;;;;;;;;;3.10;99.90;;;;;;10387963;28;19967;-68
2021/04/12 06:08:13;;;;;;;;;;;3.30;99.90;;;;;;10482403;28;20020;-67
2021/04/12 06:13:33;;;;;;;;;;;3.60;99.90;;;;;;10487130;28;20007;-67
2021/04/12 06:18:37;;;;;;;;;;;3.90;99.90;;;;;;10487294;28;19928;-68
2021/04/12 06:23:41;;;;;;;;;;;3.80;99.90;;;;;;10487042;28;20329;-68
2021/04/12 06:28:55;;;;;;;;;;;3.80;99.90;;;;;;10485590;28;20003;-68
2021/04/12 06:34:15;;;;;;;;;;;3.80;99.90;;;;;;10487074;28;20022;-67
2021/04/12 06:39:30;;;;;;;;;;;4.10;99.90;;;;;;10487196;28;20006;-67
2021/04/12 06:44:50;;;;;;;;;;;4.60;99.90;;;;;;10486317;28;20284;-67
2021/04/12 06:50:10;;;;;;;;;;;4.60;99.90;;;;;;10486727;28;20432;-68
2021/04/12 06:55:20;;;;;;;;;;;4.70;99.90;;;;;;10486832;28;20018;-68
2021/04/12 07:00:41;;;;;;;;;;;4.70;99.90;;;;;;10485778;28;19920;-67
2021/04/12 07:05:54;;;;;;;;;;;4.70;99.90;;;;;;10486428;28;19956;-68
2021/04/12 07:11:15;;;;;;;;;;;4.20;99.90;;;;;;10486712;28;19920;-68
2021/04/12 07:16:25;;;;;;;;;;;4.00;99.90;;;;;;10486343;28;19967;-68
2021/04/12 07:21:26;;;;;;;;;;;4.00;99.90;;;;;;10481795;28;19921;-67
2021/04/12 07:26:54;;;;;;;;;;;4.30;99.90;;;;;;10491309;28;20018;-68
2021/04/12 07:32:09;;;;;;;;;;;4.20;99.90;;;;;;10484243;28;20003;-67
2021/04/12 07:37:36;;;;;;;;;;;4.40;99.90;;;;;;10470065;28;19925;-68
2021/04/12 07:43:12;;;;;;;;;;;4.70;99.90;;;;;;10486182;28;20019;-68
2021/04/12 07:48:17;;;;;;;;;;;5.20;99.90;;;;;;10444230;28;20019;-68
2021/04/12 07:53:41;;;;;;;;;;;5.50;99.90;;;;;;10487812;28;20011;-68
2021/04/12 07:58:42;;;;;;;;;;;5.60;99.90;;;;;;10485982;28;19995;-68
2021/04/12 08:04:04;;;;;;;;;;;5.60;99.90;;;;;;10484505;28;19955;-68
2021/04/12 08:09:14;;;;;;;;;;;5.60;99.90;;;;;;10471112;28;20015;-68
2021/04/12 08:14:18;;;;;;;;;;;5.30;99.90;;;;;;10489964;28;20019;-67
2021/04/12 08:19:46;;;;;;;;;;;5.50;99.90;;;;;;10489041;28;19960;-68
2021/04/12 08:25:06;;;;;;;;;;;6.00;99.90;;;;;;10474215;28;19960;-68
2021/04/12 08:30:10;;;;;;;;;;;6.70;99.90;;;;;;10451859;28;19924;-68
2021/04/12 08:35:11;;;;;;;;;;;6.80;99.90;;;;;;10489976;28;20372;-68
2021/04/12 08:40:28;;;;;;;;;;;6.60;99.90;;;;;;10489018;28;19960;-61
2021/04/12 08:45:45;;;;;;;;;;;7.40;99.90;;;;;;10489457;28;19924;-60
2021/04/12 08:51:05;;;;;;;;;;;7.40;99.90;;;;;;10488815;28;19924;-61
2021/04/12 08:56:25;;;;;;;;;;;7.40;99.90;;;;;;10487483;28;19978;-60
2021/04/12 09:01:31;;;;;;;;;;;6.90;99.90;;;;;;10459469;28;20002;-60
2021/04/12 09:06:52;;;;;;;;;;;6.60;99.90;;;;;;10484184;28;19920;-60
2021/04/12 09:12:13;;;;;;;;;;;6.80;99.90;;;;;;10488322;28;19928;-60
2021/04/12 09:17:23;;;;;;;;;;;7.30;98.90;;;;;;10484499;28;19928;-60
2021/04/12 09:22:33;;;;;;;;;;;8.60;91.80;;;;;;10472740;28;19920;-61
2021/04/12 09:27:50;;;;;;;;;;;8.80;85.40;;;;;;10486738;28;20007;-61
2021/04/12 09:33:01;;;;;;;;;;;8.00;83.00;;;;;;10483904;28;20019;-60
2021/04/12 09:38:13;;;;;;;;;;;7.40;89.40;;;;;;10485061;28;19924;-60
2021/04/12 09:43:33;;;;;;;;;;;7.10;90.60;;;;;;10485763;28;20402;-60
2021/04/12 09:48:54;;;;;;;;;;;6.90;92.30;;;;;;10506214;28;19924;-60
2021/04/12 09:53:55;;;;;;;;;;;7.00;89.70;;;;;;10485214;28;19924;-60
2021/04/12 09:59:32;;;;;;;;;;;8.60;83.50;;;;;;10485263;28;20291;-61
2021/04/12 10:04:52;;;;;;;;;;;9.80;70.00;;;;;;10401201;28;19920;-60
2021/04/12 10:10:14;;;;;;;;;;;8.80;69.70;;;;;;10484719;28;20007;-60
2021/04/12 10:15:28;;;;;;;;;;;8.60;76.80;;;;;;10501107;28;20408;-61
2021/04/12 10:20:37;;;;;;;;;;;8.20;73.10;;;;;;10509209;28;19920;-60
2021/04/12 10:25:48;;;;;;;;;;;7.90;75.60;;;;;;10484367;28;20011;-60
2021/04/12 10:30:56;;;;;;;;;;;8.30;72.30;;;;;;10484210;28;20035;-61
2021/04/12 10:36:03;;;;;;;;;;;8.40;73.10;;;;;;10484147;28;19959;-60
2021/04/12 10:41:05;;;;;;;;;;;8.30;70.90;;;;;;10485010;28;19999;-61
2021/04/12 10:46:29;;;;;;;;;;;8.80;71.90;;;;;;10483189;28;20364;-61
2021/04/12 10:51:34;;;;;;;;;;;8.90;65.30;;;;;;10477736;28;19927;-61
2021/04/12 10:56:41;;;;;;;;;;;9.10;64.30;;;;;;10452635;28;19924;-61
2021/04/12 11:01:45;;;;;;;;;;;9.20;58.20;;;;;;10468942;28;20099;-60
2021/04/12 11:06:53;;;;;;;;;;;8.70;60.70;;;;;;10477118;28;20335;-61
2021/04/12 11:12:00;;;;;;;;;;;7.80;59.50;;;;;;10483069;28;19978;-60
2021/04/12 11:17:14;;;;;;;;;;;7.30;73.20;;;;;;10460708;28;20008;-60
2021/04/12 11:22:18;;;;;;;;;;;7.30;81.80;;;;;;10490654;28;19929;-61
2021/04/12 11:27:38;;;;;;;;;;;6.80;91.70;;;;;;10490913;28;19920;-60
2021/04/12 11:32:45;;;;;;;;;;;6.60;99.90;;;;;;10491249;28;20388;-60
2021/04/12 11:38:05;;;;;;;;;;;7.20;99.90;;;;;;10488399;28;19925;-60
2021/04/12 11:43:11;;;;;;;;;;;7.30;99.90;;;;;;10490737;28;20438;-60
2021/04/12 11:48:13;;;;;;;;;;;6.90;99.90;;;;;;10490856;28;20025;-60
2021/04/12 11:53:21;;;;;;;;;;;7.50;99.90;;;;;;10490083;28;19935;-60
2021/04/12 11:58:31;;;;;;;;;;;7.50;99.90;;;;;;10491919;28;20016;-61
2021/04/12 12:03:37;;;;;;;;;;;7.40;99.90;;;;;;10495324;28;19921;-60
2021/04/12 12:08:51;;;;;;;;;;;7.50;99.90;;;;;;10464345;28;19928;-60
2021/04/12 12:14:02;;;;;;;;;;;7.30;99.10;;;;;;10489360;28;20430;-60
2021/04/12 12:19:19;;;;;;;;;;;7.00;99.90;;;;;;10504437;28;20018;-60
2021/04/12 12:24:33;;;;;;;;;;;7.20;99.90;;;;;;10488659;28;19924;-60
2021/04/12 12:29:35;;;;;;;;;;;7.50;99.90;;;;;;10473934;28;19924;-60
2021/04/12 12:34:57;;;;;;;;;;;7.60;99.90;;;;;;10481092;28;19939;-61
2021/04/12 12:40:00;;;;;;;;;;;7.70;99.90;;;;;;10489254;28;19920;-60
2021/04/12 12:45:04;;;;;;;;;;;7.90;99.90;;;;;;10487132;28;19975;-61
2021/04/12 12:50:11;;;;;;;;;;;8.10;99.90;;;;;;10489162;28;19925;-61
2021/04/12 12:55:16;;;;;;;;;;;8.60;99.90;;;;;;10488418;28;20035;-60
2021/04/12 13:00:32;;;;;;;;;;;8.40;99.90;;;;;;10488193;28;19935;-60
2021/04/12 13:05:36;;;;;;;;;;;7.60;99.90;;;;;;10470706;28;20015;-60
2021/04/12 13:10:38;;;;;;;;;;;6.70;99.90;;;;;;10487944;28;19948;-60
2021/04/12 13:15:39;;;;;;;;;;;6.40;99.90;;;;;;10469578;28;19924;-61
2021/04/12 13:20:43;;;;;;;;;;;6.20;99.90;;;;;;10489479;28;19920;-60
2021/04/12 13:25:49;;;;;;;;;;;6.50;99.90;;;;;;10488754;28;19920;-61
2021/04/12 13:31:01;;;;;;;;;;;7.00;99.90;;;;;;10491243;28;20423;-61
2021/04/12 13:36:09;;;;;;;;;;;7.00;99.90;;;;;;10478963;28;20011;-60
2021/04/12 13:41:14;;;;;;;;;;;6.70;99.60;;;;;;10473297;28;20443;-61
2021/04/12 13:46:27;;;;;;;;;;;7.00;99.90;;;;;;10486005;28;20015;-60
2021/04/12 13:51:47;;;;;;;;;;;7.30;99.90;;;;;;10499650;28;20462;-61
2021/04/12 13:56:51;;;;;;;;;;;7.10;99.90;;;;;;10484779;28;19970;-61
2021/04/12 14:01:56;;;;;;;;;;;7.10;99.40;;;;;;10484722;28;19973;-61
2021/04/12 14:06:59;;;;;;;;;;;7.00;99.90;;;;;;10473379;28;20310;-61
2021/04/12 14:12:03;;;;;;;;;;;6.60;99.90;;;;;;10491282;28;20015;-61
2021/04/12 14:17:19;;;;;;;;;;;6.20;99.90;;;;;;10487822;28;20649;-61
2021/04/12 14:22:25;;;;;;;;;;;6.10;99.90;;;;;;10485403;28;20335;-60
2021/04/12 14:27:28;;;;;;;;;;;5.60;99.90;;;;;;10487062;28;19952;-60
2021/04/12 14:32:39;;;;;;;;;;;5.30;99.90;;;;;;10486587;28;19920;-61
2021/04/12 14:37:41;;;;;;;;;;;5.20;99.90;;;;;;10487062;28;20022;-60
2021/04/12 14:42:49;;;;;;;;;;;4.90;99.90;;;;;;10485487;28;19959;-61
2021/04/12 14:47:56;;;;;;;;;;;4.80;99.90;;;;;;10490382;28;20001;-60
2021/04/12 14:53:01;;;;;;;;;;;4.80;99.90;;;;;;10493694;28;20007;-60
2021/04/12 14:58:25;;;;;;;;;;;5.20;99.90;;;;;;10494320;28;19934;-61
2021/04/12 15:03:45;;;;;;;;;;;5.60;99.90;;;;;;10494981;28;20027;-60
2021/04/12 15:08:52;;;;;;;;;;;6.20;99.90;;;;;;10494961;28;20346;-60
2021/04/12 15:14:01;;;;;;;;;;;6.10;99.90;;;;;;10493638;28;19920;-60
2021/04/12 15:19:04;;;;;;;;;;;6.40;99.90;;;;;;10493241;28;19971;-60
2021/04/12 15:24:06;;;;;;;;;;;6.60;99.90;;;;;;10492753;28;19928;-60
2021/04/12 15:29:13;;;;;;;;;;;6.80;99.90;;;;;;10492628;28;19930;-61
2021/04/12 15:34:30;;;;;;;;;;;6.90;99.90;;;;;;10492704;28;20147;-61
2021/04/12 15:39:33;;;;;;;;;;;6.60;99.90;;;;;;10493249;28;19920;-60
2021/04/12 15:44:37;;;;;;;;;;;6.30;99.90;;;;;;10483288;28;19925;-60
2021/04/12 15:49:48;;;;;;;;;;;6.10;99.90;;;;;;10474232;28;19974;-60
2021/04/12 15:54:59;;;;;;;;;;;6.10;99.90;;;;;;10473788;28;19921;-60
2021/04/12 16:00:19;;;;;;;;;;;6.10;99.90;;;;;;10482694;28;19978;-60
2021/04/12 16:05:24;;;;;;;;;;;6.00;99.90;;;;;;10482668;28;19972;-60
2021/04/12 16:10:25;;;;;;;;;;;6.10;99.90;;;;;;10479682;28;20007;-60
2021/04/12 16:15:31;;;;;;;;;;;6.20;99.90;;;;;;10463699;28;20043;-60
2021/04/12 16:20:57;;;;;;;;;;;6.20;99.90;;;;;;10467544;28;19920;-60
2021/04/12 16:26:06;;;;;;;;;;;6.20;99.90;;;;;;10485385;28;20371;-60
2021/04/12 16:31:12;;;;;;;;;;;6.10;99.90;;;;;;10482252;28;19928;-60
2021/04/12 16:36:23;;;;;;;;;;;6.20;99.90;;;;;;10486592;28;20011;-60
2021/04/12 16:41:26;;;;;;;;;;;6.50;99.90;;;;;;10486245;28;20411;-60
2021/04/12 16:46:57;;;;;;;;;;;7.40;99.90;;;;;;10477327;28;20023;-60
2021/04/12 16:52:07;;;;;;;;;;;7.70;97.00;;;;;;10464525;28;20386;-60
2021/04/12 16:57:10;;;;;;;;;;;7.80;97.60;;;;;;10485381;28;20030;-61
2021/04/12 17:02:28;;;;;;;;;;;8.50;94.50;;;;;;10481381;28;19920;-60
2021/04/12 17:07:52;;;;;;;;;;;8.30;88.50;;;;;;10468403;28;19973;-61
2021/04/12 17:12:57;;;;;;;;;;;7.50;95.40;;;;;;10489410;28;19957;-60
2021/04/12 17:18:01;;;;;;;;;;;7.00;98.70;;;;;;10481920;28;20018;-60
2021/04/12 17:23:13;;;;;;;;;;;6.80;99.40;;;;;;10486782;28;20338;-60
2021/04/12 17:28:14;;;;;;;;;;;6.50;99.30;;;;;;10483124;28;19967;-60
2021/04/12 17:33:19;;;;;;;;;;;6.40;99.90;;;;;;10483321;28;20346;-60
2021/04/12 17:38:25;;;;;;;;;;;6.20;99.90;;;;;;10486647;28;19954;-60
2021/04/12 17:43:28;;;;;;;;;;;6.10;99.90;;;;;;10485681;28;19970;-60
2021/04/12 17:48:37;;;;;;;;;;;6.00;99.90;;;;;;10485976;28;19927;-60
2021/04/12 17:53:39;;;;;;;;;;;5.80;99.90;;;;;;10448390;28;19921;-60
2021/04/12 17:58:43;;;;;;;;;;;5.60;99.90;;;;;;10480473;28;19920;-60
2021/04/12 18:03:48;;;;;;;;;;;5.40;99.90;;;;;;10486713;28;19999;-60
2021/04/12 18:08:55;;;;;;;;;;;5.30;99.90;;;;;;10481760;28;19997;-60
2021/04/12 18:13:57;;;;;;;;;;;5.20;99.90;;;;;;10479361;28;19981;-60
2021/04/12 18:19:01;;;;;;;;;;;5.20;99.90;;;;;;10486739;28;20001;-61
2021/04/12 18:24:10;;;;;;;;;;;5.10;99.90;;;;;;10485970;28;20437;-71
2021/04/12 18:29:30;;;;;;;;;;;5.00;99.90;;;;;;10484776;28;20007;-71
2021/04/12 18:34:50;;;;;;;;;;;5.00;99.90;;;;;;10480761;28;20031;-71
2021/04/12 18:39:54;;;;;;;;;;;4.80;99.90;;;;;;10472384;28;19942;-71
2021/04/12 18:44:56;;;;;;;;;;;4.50;99.90;;;;;;10458145;28;19924;-71
2021/04/12 18:50:08;;;;;;;;;;;4.30;99.90;;;;;;10449133;28;19952;-71
2021/04/12 18:55:18;;;;;;;;;;;4.10;99.90;;;;;;10469916;28;20316;-71
2021/04/12 19:00:23;;;;;;;;;;;4.00;99.90;;;;;;10485196;28;19963;-71
2021/04/12 19:05:48;;;;;;;;;;;3.80;99.90;;;;;;10484424;28;20372;-71
2021/04/12 19:10:52;;;;;;;;;;;3.60;99.90;;;;;;10460653;28;20004;-71
2021/04/12 19:16:12;;;;;;;;;;;3.50;99.90;;;;;;10517504;28;20019;-72
2021/04/12 19:21:34;;;;;;;;;;;3.30;99.90;;;;;;10468831;28;19971;-71
2021/04/12 19:26:59;;;;;;;;;;;3.30;99.90;;;;;;10483265;28;19925;-71
2021/04/12 19:32:06;;;;;;;;;;;3.00;99.90;;;;;;10485157;28;20420;-71
2021/04/12 19:37:26;;;;;;;;;;;3.00;99.90;;;;;;10478364;28;19924;-71
2021/04/12 19:42:47;;;;;;;;;;;2.90;99.90;;;;;;10476082;28;19920;-71
2021/04/12 19:47:48;;;;;;;;;;;2.90;99.90;;;;;;10487714;28;20067;-71
2021/04/12 19:53:08;;;;;;;;;;;2.70;99.90;;;;;;10490646;28;19927;-71
2021/04/12 19:58:12;;;;;;;;;;;2.70;99.90;;;;;;10490664;28;19925;-71
2021/04/12 20:03:13;;;;;;;;;;;2.60;99.90;;;;;;10491906;28;20347;-71
2021/04/12 20:08:20;;;;;;;;;;;2.40;99.90;;;;;;10490960;28;20296;-71
2021/04/12 20:13:22;;;;;;;;;;;2.30;99.90;;;;;;10490348;28;20039;-71
2021/04/12 20:18:44;;;;;;;;;;;2.10;99.90;;;;;;10489983;28;20284;-71
2021/04/12 20:24:04;;;;;;;;;;;2.00;99.90;;;;;;10476935;28;20328;-71
2021/04/12 20:29:16;;;;;;;;;;;2.00;99.90;;;;;;10489818;28;19971;-71
2021/04/12 20:34:24;;;;;;;;;;;1.90;99.90;;;;;;10490568;28;19920;-70
2021/04/12 20:39:25;;;;;;;;;;;1.80;99.90;;;;;;10490766;28;19966;-70
2021/04/12 20:44:45;;;;;;;;;;;1.70;99.90;;;;;;10489497;28;20295;-70
2021/04/12 20:49:50;;;;;;;;;;;1.70;99.90;;;;;;10488540;28;20031;-70
2021/04/12 20:55:04;;;;;;;;;;;1.50;99.90;;;;;;10490363;28;19963;-71
2021/04/12 21:00:08;;;;;;;;;;;1.40;99.90;;;;;;10489179;28;19968;-70
2021/04/12 21:05:11;;;;;;;;;;;1.30;99.90;;;;;;10489235;28;20023;-70
2021/04/12 21:10:26;;;;;;;;;;;1.30;99.90;;;;;;10487329;28;19920;-71
2021/04/12 21:15:46;;;;;;;;;;;1.30;99.90;;;;;;10466034;28;19931;-70
2021/04/12 21:20:52;;;;;;;;;;;1.20;99.90;;;;;;10488788;28;19924;-71
2021/04/12 21:25:56;;;;;;;;;;;1.10;99.90;;;;;;10488245;28;20020;-71
2021/04/12 21:31:18;;;;;;;;;;;1.00;99.90;;;;;;10487840;28;20350;-71
2021/04/12 21:36:40;;;;;;;;;;;1.10;99.90;;;;;;10461503;28;19966;-71
2021/04/12 21:41:57;;;;;;;;;;;1.00;99.90;;;;;;10474583;28;20365;-71
2021/04/12 21:47:05;;;;;;;;;;;0.90;99.90;;;;;;10487968;28;20022;-71
2021/04/12 21:52:25;;;;;;;;;;;0.90;99.90;;;;;;10487488;28;19924;-71
2021/04/12 21:57:31;;;;;;;;;;;0.90;99.90;;;;;;10484850;28;20015;-71
2021/04/12 22:02:39;;;;;;;;;;;1.00;99.90;;;;;;10483848;28;20004;-71
2021/04/12 22:07:46;;;;;;;;;;;0.90;99.90;;;;;;10484425;28;19927;-71
2021/04/12 22:12:54;;;;;;;;;;;0.80;99.90;;;;;;10485435;28;20076;-71
2021/04/12 22:18:01;;;;;;;;;;;0.80;99.90;;;;;;10483865;28;20003;-71
2021/04/12 22:23:05;;;;;;;;;;;0.70;99.90;;;;;;10485647;28;19924;-71
2021/04/12 22:28:08;;;;;;;;;;;0.60;99.90;;;;;;10485423;28;19999;-71
2021/04/12 22:33:38;;;;;;;;;;;0.50;99.90;;;;;;10485330;28;19927;-71
2021/04/12 22:44:14;;;;;;;;;;;0.50;99.90;;;;;;10483842;28;20229;-71
2021/04/12 22:49:15;;;;;;;;;;;0.50;99.90;;;;;;10484685;28;20355;-70
2021/04/12 22:54:32;;;;;;;;;;;0.40;99.90;;;;;;10483700;28;20011;-71
2021/04/12 23:00:02;;;;;;;;;;;0.30;99.90;;;;;;10484858;28;20014;-71
2021/04/12 23:05:26;;;;;;;;;;;0.30;99.90;;;;;;10483814;28;19975;-71
2021/04/12 23:10:35;;;;;;;;;;;0.20;99.90;;;;;;10490248;28;19926;-71
2021/04/12 23:15:41;;;;;;;;;;;0.10;99.90;;;;;;10492100;28;19967;-70
2021/04/12 23:20:44;;;;;;;;;;;0.10;99.90;;;;;;10493219;28;20007;-71
2021/04/12 23:25:46;;;;;;;;;;;0.00;99.90;;;;;;10492296;28;19982;-71
2021/04/12 23:30:53;;;;;;;;;;;0.00;99.90;;;;;;10491443;28;19920;-71
2021/04/12 23:35:56;;;;;;;;;;;0.00;99.90;;;;;;10492464;28;19924;-71
2021/04/12 23:40:59;;;;;;;;;;;0.00;99.90;;;;;;10490015;28;19924;-71
2021/04/12 23:46:02;;;;;;;;;;;0.00;99.90;;;;;;10491010;28;19955;-71
2021/04/12 23:51:19;;;;;;;;;;;0.00;99.90;;;;;;10490952;28;20378;-71
2021/04/12 23:56:36;;;;;;;;;;;-0.10;99.90;;;;;;10490327;28;19920;-71
